Northwest Alabama Regional Airport
KMSL : now visible

Airfield :











YOU CAN JOIN US ON...

 
LOGIN :

Register | Disclaimer

   EN    FR    IT 

 









Legend :    VFR   Marginal VFR   IFR   Intensive IFR   Very Intensive IFR
Visi :
Ceiling :
>= 8 km
>= 3000ft
5 to 8 km
1000 to 3000 ft
1500m to 5 km
500 to 1000 ft
800 to 1500m
200 to 500 ft
< 800m
< 200 ft
Symbols :   Thunderstorms  Fog  Heavy snow  Heavy precipitations  Wind > 20 kt






- Airport Elevation : 551 ft
- IATA code : MSL


KMSL - Northwest Alabama Regional

CURRENT METAR :
  • 290053Z AUTO 13003KT 10SM CLR 08/05 A3014 RMK AO2 SLP207 T00830050

EXPIRED METARs :
  • 282353Z AUTO 00000KT 10SM CLR 09/06 A3014 RMK AO2 SLP205 T00940056 10144 20094 53002
  • 282253Z AUTO 00000KT 10SM CLR 11/04 A3014 RMK AO2 SLP205 T01110044

TAF KMSL
Valid from the 29 at 00:00 until the 30 at 00:00 UTC


282320Z 2900/2924 05004KT P6SM OVC250
FM291800 13005KT P6SM OVC045
FM292000 10005KT 6SM SHRA BR OVC009
FM292300 05005KT 2SM SHRA BR OVC008
KZME FIR / North America



MET'MAP, your aeronautical weather chart ! - Copyright ORBIFLY December 2007 - Disclaimer

ORBIFLY MET'MAP TEAM :

Programming & Development : Alexandra Zaïnal
Concept & original design : Baudouin d'Aumeries
Assistance for programming : Marc-Olivier Méhu
Technical & hardware support : Manuel Goepfert

Contact : metmap@orbifly.com




SOURCES & CREDITS :

   NOAA       Earth
Advisory